createdAt,value
2023-01-13T00:01:16.615Z,8.87
2023-01-13T00:06:19.094Z,8.87
2023-01-13T00:11:15.963Z,8.87
2023-01-13T00:16:17.829Z,8.86
2023-01-13T00:21:16.891Z,8.85
2023-01-13T00:26:19.664Z,8.69
2023-01-13T00:31:20.964Z,8.58
2023-01-13T00:36:19.492Z,8.48
2023-01-13T00:41:22.653Z,8.33
2023-01-13T00:46:21.354Z,8.19
2023-01-13T00:51:20.425Z,8.03
2023-01-13T00:56:24.360Z,7.87
2023-01-13T01:01:26.962Z,7.67
2023-01-13T01:06:25.684Z,7.59
2023-01-13T01:11:25.880Z,7.51
2023-01-13T01:16:25.353Z,7.51
2023-01-13T01:21:23.265Z,7.46
2023-01-13T01:26:21.834Z,7.49
2023-01-13T01:31:24.877Z,7.44
2023-01-13T01:36:24.010Z,7.35
2023-01-13T01:41:23.720Z,7.31
2023-01-13T01:46:20.131Z,7.31
2023-01-13T01:51:16.568Z,7.46
2023-01-13T01:56:12.992Z,7.32
2023-01-13T02:01:10.078Z,7.32
2023-01-13T02:06:06.637Z,7.31
2023-01-13T02:11:05.411Z,7.32
2023-01-13T02:16:22.501Z,7.22
2023-01-13T02:22:13.001Z,7.25
2023-01-13T02:27:46.844Z,7.24
2023-01-13T02:33:04.495Z,7.35
2023-01-13T02:38:02.692Z,7.29
2023-01-13T02:43:32.932Z,7.15
2023-01-13T02:48:32.081Z,7.26
2023-01-13T02:53:37.477Z,7.16
2023-01-13T02:58:36.218Z,7.16
2023-01-13T03:03:32.729Z,7.24
2023-01-13T03:08:59.983Z,7.24
2023-01-13T03:14:28.725Z,7.09
2023-01-13T03:19:44.057Z,7.11
2023-01-13T03:24:47.149Z,7.09
2023-01-13T03:29:56.654Z,7.12
2023-01-13T03:34:57.373Z,7.14
2023-01-13T03:40:00.189Z,7.10
2023-01-13T03:45:12.823Z,6.95
2023-01-13T03:50:21.068Z,6.87
2023-01-13T03:55:31.199Z,6.74
2023-01-13T04:00:36.981Z,6.70
2023-01-13T04:05:41.921Z,6.65
2023-01-13T04:10:48.794Z,6.56
2023-01-13T04:15:46.692Z,6.56
2023-01-13T04:20:45.439Z,6.43
2023-01-13T04:25:42.942Z,6.63
2023-01-13T04:30:39.720Z,6.55
2023-01-13T04:35:37.104Z,6.53
2023-01-13T04:40:33.591Z,6.52
2023-01-13T04:45:30.104Z,6.55
2023-01-13T04:50:27.214Z,6.48
2023-01-13T04:55:24.784Z,6.41
2023-01-13T05:00:23.353Z,6.48
2023-01-13T05:05:19.752Z,6.37
2023-01-13T05:10:16.486Z,6.35
2023-01-13T05:15:32.681Z,6.32
2023-01-13T05:20:29.082Z,6.38
2023-01-13T05:25:27.307Z,6.30
2023-01-13T05:30:26.997Z,6.27
2023-01-13T05:35:23.985Z,6.09
2023-01-13T05:40:39.151Z,6.31
2023-01-13T05:45:35.576Z,6.45
2023-01-13T05:50:32.187Z,6.49
2023-01-13T05:55:28.618Z,6.48
2023-01-13T06:00:25.075Z,6.52
2023-01-13T06:05:21.445Z,6.58
2023-01-13T06:10:17.942Z,6.47
2023-01-13T06:15:14.359Z,6.40
2023-01-13T06:20:12.656Z,6.29
2023-01-13T06:25:59.919Z,6.27
2023-01-13T06:31:01.783Z,6.38
2023-01-13T06:36:03.168Z,6.27
2023-01-13T06:40:59.545Z,6.30
2023-01-13T06:45:56.496Z,6.34
2023-01-13T06:50:52.929Z,6.35
2023-01-13T06:55:49.404Z,6.42
2023-01-13T07:00:49.567Z,6.31
2023-01-13T07:05:52.710Z,6.40
2023-01-13T07:10:49.148Z,6.60
2023-01-13T07:15:58.175Z,6.62
2023-01-13T07:20:56.593Z,6.66
2023-01-13T07:25:56.015Z,6.67
2023-01-13T07:30:53.068Z,6.72
2023-01-13T07:35:57.452Z,6.72
2023-01-13T07:40:54.344Z,6.64
2023-01-13T07:45:56.581Z,6.74
2023-01-13T07:50:53.729Z,6.63
2023-01-13T07:55:50.245Z,6.56
2023-01-13T08:00:46.699Z,6.50
2023-01-13T08:05:43.113Z,6.56
2023-01-13T08:10:39.613Z,6.56
2023-01-13T08:15:36.064Z,6.61
2023-01-13T08:20:32.750Z,6.68
2023-01-13T08:25:29.996Z,6.84
2023-01-13T08:30:27.780Z,6.88
2023-01-13T08:35:24.484Z,6.91
2023-01-13T08:40:22.195Z,6.98
2023-01-13T08:45:18.615Z,7.05
2023-01-13T08:50:15.567Z,7.07
2023-01-13T08:55:12.045Z,7.18
2023-01-13T09:00:09.234Z,7.18
2023-01-13T09:05:07.437Z,7.23
2023-01-13T09:10:06.338Z,7.21
2023-01-13T09:15:04.249Z,7.15
2023-01-13T09:20:00.849Z,7.25
2023-01-13T09:24:57.554Z,7.25
2023-01-13T09:29:54.053Z,7.29
2023-01-13T09:34:59.868Z,7.38
2023-01-13T09:39:56.844Z,7.47
2023-01-13T09:45:06.784Z,7.40
2023-01-13T09:50:15.104Z,7.43
2023-01-13T09:55:34.574Z,7.44
2023-01-13T10:00:38.337Z,7.36
2023-01-13T10:05:38.859Z,7.34
2023-01-13T10:10:50.709Z,7.44
2023-01-13T10:15:52.827Z,7.46
2023-01-13T10:21:15.188Z,7.48
2023-01-13T10:26:25.130Z,7.50
2023-01-13T10:31:22.617Z,7.60
2023-01-13T10:36:22.901Z,7.67
2023-01-13T10:41:24.873Z,7.71
2023-01-13T10:46:21.379Z,7.64
2023-01-13T10:51:39.643Z,7.44
2023-01-13T10:56:36.036Z,7.35
2023-01-13T11:01:32.555Z,7.10
2023-01-13T11:06:30.870Z,6.75
2023-01-13T11:11:40.333Z,6.47
2023-01-13T11:16:47.306Z,6.39
2023-01-13T11:22:02.655Z,6.42
2023-01-13T11:27:20.631Z,6.45
2023-01-13T11:32:19.884Z,6.61
2023-01-13T11:37:23.217Z,6.75
2023-01-13T11:42:32.059Z,7.07
2023-01-13T11:47:29.587Z,7.14
2023-01-13T11:52:39.490Z,7.08
2023-01-13T11:57:54.756Z,7.10
2023-01-13T12:03:20.227Z,7.14
2023-01-13T12:08:22.778Z,6.93
2023-01-13T12:13:31.611Z,6.86
2023-01-13T12:18:40.890Z,6.71
2023-01-13T12:23:50.305Z,6.74
2023-01-13T12:28:52.770Z,6.72
2023-01-13T12:34:10.720Z,6.79
2023-01-13T12:39:47.086Z,6.82
2023-01-13T12:45:05.076Z,6.88
2023-01-13T12:50:23.721Z,6.82
2023-01-13T12:55:36.192Z,6.60
2023-01-13T13:00:41.845Z,6.51
2023-01-13T13:06:09.745Z,6.46
2023-01-13T13:11:37.340Z,6.44
2023-01-13T13:16:37.005Z,6.52
2023-01-13T13:22:11.326Z,6.57
2023-01-13T13:27:22.728Z,6.66
2023-01-13T13:32:43.552Z,6.75
2023-01-13T13:38:16.654Z,6.69
2023-01-13T13:43:43.903Z,6.61
2023-01-13T13:48:52.344Z,6.33
2023-01-13T13:53:49.148Z,6.31
2023-01-13T13:58:48.017Z,6.33
2023-01-13T14:03:44.743Z,6.34
2023-01-13T14:08:46.135Z,6.31
2023-01-13T14:13:43.248Z,6.28
2023-01-13T14:18:45.517Z,6.23
2023-01-13T14:23:52.244Z,6.21
2023-01-13T14:28:48.647Z,6.21
2023-01-13T14:33:48.047Z,6.28
2023-01-13T14:38:47.495Z,6.34
2023-01-13T14:43:48.880Z,6.36
2023-01-13T14:48:47.577Z,6.37
2023-01-13T14:53:46.965Z,6.51
2023-01-13T14:58:43.461Z,6.52
2023-01-13T15:03:42.340Z,6.56
2023-01-13T15:08:39.571Z,6.43
2023-01-13T15:13:48.845Z,6.30
2023-01-13T15:18:49.703Z,6.24
2023-01-13T15:23:47.300Z,6.09
2023-01-13T15:28:43.758Z,5.96
2023-01-13T15:33:40.277Z,5.88
2023-01-13T15:38:36.700Z,5.73
2023-01-13T15:43:52.047Z,5.58
2023-01-13T15:48:50.672Z,5.46
2023-01-13T15:53:51.215Z,5.39
2023-01-13T15:58:47.689Z,5.39
2023-01-13T16:03:44.225Z,5.40
2023-01-13T16:08:40.841Z,5.40
2023-01-13T16:13:37.524Z,5.40
2023-01-13T16:18:33.996Z,5.39
2023-01-13T16:23:30.376Z,5.47
2023-01-13T16:28:28.109Z,5.47
2023-01-13T16:33:24.498Z,5.56
2023-01-13T16:38:20.888Z,5.62
2023-01-13T16:43:17.269Z,5.61
2023-01-13T16:48:20.517Z,5.55
2023-01-13T16:53:17.231Z,5.56
2023-01-13T16:58:19.850Z,5.57
2023-01-13T17:03:16.334Z,5.60
2023-01-13T17:08:20.252Z,5.50
2023-01-13T17:13:17.441Z,5.46
2023-01-13T17:18:13.915Z,5.38
2023-01-13T17:23:10.351Z,5.37
2023-01-13T17:28:06.907Z,5.33
2023-01-13T17:33:03.366Z,5.41
2023-01-13T17:38:02.896Z,5.49
2023-01-13T17:42:59.358Z,5.60
2023-01-13T17:47:59.580Z,5.64
2023-01-13T17:52:56.002Z,5.64
2023-01-13T17:57:52.390Z,5.74
2023-01-13T18:02:48.901Z,5.75
2023-01-13T18:07:47.415Z,5.72
2023-01-13T18:12:43.789Z,5.63
2023-01-13T18:17:40.165Z,5.59
2023-01-13T18:22:55.146Z,5.53
2023-01-13T18:27:51.603Z,5.42
2023-01-13T18:32:48.083Z,5.39
2023-01-13T18:37:44.687Z,5.34
2023-01-13T18:42:58.655Z,5.36
2023-01-13T18:47:57.792Z,5.33
2023-01-13T18:52:54.511Z,5.32
2023-01-13T18:57:51.738Z,5.31
2023-01-13T19:08:02.836Z,5.25
2023-01-13T19:13:01.064Z,5.23
2023-01-13T19:17:57.593Z,5.23
2023-01-13T19:22:54.402Z,5.23
2023-01-13T19:27:50.899Z,5.22
2023-01-13T19:32:47.366Z,5.26
2023-01-13T19:37:44.340Z,5.30
2023-01-13T19:43:01.610Z,5.33
2023-01-13T19:48:01.790Z,5.34
2023-01-13T19:52:58.426Z,5.35
2023-01-13T19:57:54.915Z,5.34
2023-01-13T20:02:52.932Z,5.37
2023-01-13T20:07:50.992Z,5.33
2023-01-13T20:12:47.791Z,5.34
2023-01-13T20:17:44.247Z,5.40
2023-01-13T20:22:40.811Z,5.40
2023-01-13T20:27:37.271Z,5.44
2023-01-13T20:32:33.673Z,5.46
2023-01-13T20:37:30.635Z,5.41
2023-01-13T20:42:46.248Z,5.41
2023-01-13T20:47:44.016Z,5.38
2023-01-13T20:52:40.490Z,5.37
2023-01-13T20:57:36.931Z,5.35
2023-01-13T21:02:33.329Z,5.43
2023-01-13T21:07:29.783Z,5.46
2023-01-13T21:12:44.724Z,5.56
2023-01-13T21:17:59.924Z,5.46
2023-01-13T21:22:56.715Z,5.40
2023-01-13T21:27:54.407Z,5.35
2023-01-13T21:32:50.921Z,5.39
2023-01-13T21:37:47.353Z,5.48
2023-01-13T21:43:02.361Z,5.55
2023-01-13T21:47:58.842Z,5.47
2023-01-13T21:52:55.898Z,5.49
2023-01-13T21:58:06.279Z,5.48
2023-01-13T22:03:04.868Z,5.45
2023-01-13T22:08:01.257Z,5.41
2023-01-13T22:13:20.425Z,5.39
2023-01-13T22:18:18.084Z,5.41
2023-01-13T22:23:14.530Z,5.44
2023-01-13T22:28:13.761Z,5.45
2023-01-13T22:33:10.630Z,5.41
2023-01-13T22:38:07.045Z,5.37
2023-01-13T22:43:03.468Z,5.38
2023-01-13T22:47:59.898Z,5.38
2023-01-13T22:52:56.316Z,5.36
2023-01-13T22:57:52.705Z,5.38
2023-01-13T23:02:49.147Z,5.35
2023-01-13T23:07:45.654Z,5.33
2023-01-13T23:12:42.022Z,5.29
2023-01-13T23:17:38.403Z,5.35
2023-01-13T23:22:38.488Z,5.35
2023-01-13T23:27:35.373Z,5.39
2023-01-13T23:32:32.050Z,5.39
2023-01-13T23:37:28.454Z,5.42
2023-01-13T23:42:24.969Z,5.46
2023-01-13T23:47:21.435Z,5.51
2023-01-13T23:52:18.042Z,5.56
2023-01-13T23:57:14.485Z,5.50
